sensor_id;sensor_type;location;lat;lon;timestamp;P1;durP1;ratioP1;P2;durP2;ratioP2
2257;SDS011;1136;51.574;7.706;2022-12-18T00:01:17;46.67;;;28.00;;
2257;SDS011;1136;51.574;7.706;2022-12-18T00:03:47;44.40;;;28.70;;
2257;SDS011;1136;51.574;7.706;2022-12-18T00:06:14;42.10;;;25.40;;
2257;SDS011;1136;51.574;7.706;2022-12-18T00:08:42;41.00;;;27.30;;
2257;SDS011;1136;51.574;7.706;2022-12-18T00:11:11;42.63;;;26.77;;
2257;SDS011;1136;51.574;7.706;2022-12-18T00:13:42;40.47;;;27.43;;
2257;SDS011;1136;51.574;7.706;2022-12-18T00:16:11;44.87;;;28.70;;
2257;SDS011;1136;51.574;7.706;2022-12-18T00:18:39;42.17;;;26.10;;
2257;SDS011;1136;51.574;7.706;2022-12-18T00:21:07;47.00;;;25.87;;
2257;SDS011;1136;51.574;7.706;2022-12-18T00:23:36;46.13;;;26.97;;
2257;SDS011;1136;51.574;7.706;2022-12-18T00:26:05;40.33;;;26.60;;
2257;SDS011;1136;51.574;7.706;2022-12-18T00:28:33;36.63;;;25.30;;
2257;SDS011;1136;51.574;7.706;2022-12-18T00:31:04;42.70;;;26.97;;
2257;SDS011;1136;51.574;7.706;2022-12-18T00:33:33;43.87;;;28.70;;
2257;SDS011;1136;51.574;7.706;2022-12-18T00:36:04;45.57;;;28.37;;
2257;SDS011;1136;51.574;7.706;2022-12-18T00:38:32;43.30;;;27.77;;
2257;SDS011;1136;51.574;7.706;2022-12-18T00:40:59;42.27;;;28.57;;
2257;SDS011;1136;51.574;7.706;2022-12-18T00:43:26;42.53;;;28.80;;
2257;SDS011;1136;51.574;7.706;2022-12-18T00:45:53;47.10;;;26.67;;
2257;SDS011;1136;51.574;7.706;2022-12-18T00:48:20;44.80;;;28.00;;
2257;SDS011;1136;51.574;7.706;2022-12-18T00:50:47;40.37;;;26.87;;
2257;SDS011;1136;51.574;7.706;2022-12-18T00:53:14;43.87;;;28.40;;
2257;SDS011;1136;51.574;7.706;2022-12-18T00:55:41;47.70;;;26.60;;
2257;SDS011;1136;51.574;7.706;2022-12-18T00:58:09;46.30;;;27.90;;
2257;SDS011;1136;51.574;7.706;2022-12-18T01:00:37;40.90;;;26.13;;
2257;SDS011;1136;51.574;7.706;2022-12-18T01:03:04;45.40;;;27.70;;
2257;SDS011;1136;51.574;7.706;2022-12-18T01:05:32;44.60;;;27.43;;
2257;SDS011;1136;51.574;7.706;2022-12-18T01:07:59;45.63;;;26.67;;
2257;SDS011;1136;51.574;7.706;2022-12-18T01:10:25;40.57;;;26.70;;
2257;SDS011;1136;51.574;7.706;2022-12-18T01:12:52;39.93;;;25.47;;
2257;SDS011;1136;51.574;7.706;2022-12-18T01:15:19;44.17;;;27.00;;
2257;SDS011;1136;51.574;7.706;2022-12-18T01:17:46;41.00;;;25.53;;
2257;SDS011;1136;51.574;7.706;2022-12-18T01:20:13;41.67;;;26.27;;
2257;SDS011;1136;51.574;7.706;2022-12-18T01:22:39;39.80;;;27.03;;
2257;SDS011;1136;51.574;7.706;2022-12-18T01:25:06;44.90;;;26.60;;
2257;SDS011;1136;51.574;7.706;2022-12-18T01:27:34;42.90;;;25.00;;
2257;SDS011;1136;51.574;7.706;2022-12-18T01:30:00;42.17;;;27.77;;
2257;SDS011;1136;51.574;7.706;2022-12-18T01:32:29;40.73;;;25.20;;
2257;SDS011;1136;51.574;7.706;2022-12-18T01:34:56;39.73;;;26.17;;
2257;SDS011;1136;51.574;7.706;2022-12-18T01:37:23;41.80;;;25.97;;
2257;SDS011;1136;51.574;7.706;2022-12-18T01:39:49;42.70;;;28.33;;
2257;SDS011;1136;51.574;7.706;2022-12-18T01:42:18;40.93;;;26.30;;
2257;SDS011;1136;51.574;7.706;2022-12-18T01:47:25;46.40;;;26.13;;
2257;SDS011;1136;51.574;7.706;2022-12-18T01:49:52;37.20;;;24.70;;
2257;SDS011;1136;51.574;7.706;2022-12-18T01:52:19;49.17;;;27.07;;
2257;SDS011;1136;51.574;7.706;2022-12-18T01:54:46;45.10;;;26.60;;
2257;SDS011;1136;51.574;7.706;2022-12-18T01:57:14;43.73;;;27.23;;
2257;SDS011;1136;51.574;7.706;2022-12-18T01:59:41;39.93;;;27.13;;
2257;SDS011;1136;51.574;7.706;2022-12-18T02:02:09;44.50;;;26.00;;
2257;SDS011;1136;51.574;7.706;2022-12-18T02:04:36;38.93;;;26.70;;
2257;SDS011;1136;51.574;7.706;2022-12-18T02:07:05;41.97;;;25.93;;
2257;SDS011;1136;51.574;7.706;2022-12-18T02:09:45;42.97;;;26.27;;
2257;SDS011;1136;51.574;7.706;2022-12-18T02:12:19;42.57;;;27.00;;
2257;SDS011;1136;51.574;7.706;2022-12-18T02:14:54;42.40;;;26.57;;
2257;SDS011;1136;51.574;7.706;2022-12-18T02:17:28;40.40;;;26.27;;
2257;SDS011;1136;51.574;7.706;2022-12-18T02:28:44;44.53;;;27.07;;
2257;SDS011;1136;51.574;7.706;2022-12-18T02:31:16;43.17;;;26.80;;
2257;SDS011;1136;51.574;7.706;2022-12-18T02:33:45;46.33;;;28.27;;
2257;SDS011;1136;51.574;7.706;2022-12-18T02:36:13;43.53;;;28.53;;
2257;SDS011;1136;51.574;7.706;2022-12-18T02:38:42;45.60;;;26.67;;
2257;SDS011;1136;51.574;7.706;2022-12-18T02:41:09;45.93;;;28.10;;
2257;SDS011;1136;51.574;7.706;2022-12-18T02:43:36;38.57;;;25.27;;
2257;SDS011;1136;51.574;7.706;2022-12-18T02:48:59;48.23;;;26.50;;
2257;SDS011;1136;51.574;7.706;2022-12-18T02:51:32;41.47;;;26.60;;
2257;SDS011;1136;51.574;7.706;2022-12-18T02:56:57;42.50;;;26.57;;
2257;SDS011;1136;51.574;7.706;2022-12-18T02:59:32;47.30;;;26.50;;
2257;SDS011;1136;51.574;7.706;2022-12-18T03:02:17;45.43;;;26.70;;
2257;SDS011;1136;51.574;7.706;2022-12-18T03:05:25;40.97;;;25.20;;
2257;SDS011;1136;51.574;7.706;2022-12-18T03:07:58;49.23;;;28.03;;
2257;SDS011;1136;51.574;7.706;2022-12-18T03:10:28;42.07;;;27.67;;
2257;SDS011;1136;51.574;7.706;2022-12-18T03:13:00;43.20;;;26.83;;
2257;SDS011;1136;51.574;7.706;2022-12-18T03:15:44;43.70;;;27.93;;
2257;SDS011;1136;51.574;7.706;2022-12-18T03:18:19;42.10;;;26.80;;
2257;SDS011;1136;51.574;7.706;2022-12-18T03:21:27;40.87;;;27.20;;
2257;SDS011;1136;51.574;7.706;2022-12-18T03:23:56;43.60;;;30.50;;
2257;SDS011;1136;51.574;7.706;2022-12-18T03:26:23;45.43;;;28.67;;
2257;SDS011;1136;51.574;7.706;2022-12-18T03:28:53;47.80;;;28.27;;
2257;SDS011;1136;51.574;7.706;2022-12-18T03:31:24;42.30;;;27.03;;
2257;SDS011;1136;51.574;7.706;2022-12-18T03:33:53;47.70;;;26.50;;
2257;SDS011;1136;51.574;7.706;2022-12-18T03:36:21;42.47;;;26.20;;
2257;SDS011;1136;51.574;7.706;2022-12-18T03:38:49;39.90;;;25.47;;
2257;SDS011;1136;51.574;7.706;2022-12-18T03:41:22;46.50;;;29.00;;
2257;SDS011;1136;51.574;7.706;2022-12-18T03:47:21;47.80;;;26.60;;
2257;SDS011;1136;51.574;7.706;2022-12-18T03:52:39;39.73;;;25.03;;
2257;SDS011;1136;51.574;7.706;2022-12-18T03:55:12;46.83;;;27.00;;
2257;SDS011;1136;51.574;7.706;2022-12-18T03:57:39;44.43;;;26.10;;
2257;SDS011;1136;51.574;7.706;2022-12-18T04:00:11;37.17;;;23.90;;
2257;SDS011;1136;51.574;7.706;2022-12-18T04:02:41;43.30;;;26.60;;
2257;SDS011;1136;51.574;7.706;2022-12-18T04:05:11;40.20;;;24.57;;
2257;SDS011;1136;51.574;7.706;2022-12-18T04:07:38;52.33;;;26.97;;
2257;SDS011;1136;51.574;7.706;2022-12-18T04:10:06;41.83;;;23.90;;
2257;SDS011;1136;51.574;7.706;2022-12-18T04:12:33;42.80;;;26.83;;
2257;SDS011;1136;51.574;7.706;2022-12-18T04:15:00;52.97;;;27.80;;
2257;SDS011;1136;51.574;7.706;2022-12-18T04:17:27;42.63;;;25.90;;
2257;SDS011;1136;51.574;7.706;2022-12-18T04:19:53;44.63;;;25.87;;
2257;SDS011;1136;51.574;7.706;2022-12-18T04:22:20;38.67;;;25.70;;
2257;SDS011;1136;51.574;7.706;2022-12-18T04:24:47;46.10;;;25.90;;
2257;SDS011;1136;51.574;7.706;2022-12-18T04:27:13;46.40;;;25.27;;
2257;SDS011;1136;51.574;7.706;2022-12-18T04:29:40;38.37;;;25.10;;
2257;SDS011;1136;51.574;7.706;2022-12-18T04:32:07;38.37;;;23.80;;
2257;SDS011;1136;51.574;7.706;2022-12-18T04:34:34;47.23;;;26.80;;
2257;SDS011;1136;51.574;7.706;2022-12-18T04:37:00;45.83;;;25.83;;
2257;SDS011;1136;51.574;7.706;2022-12-18T04:39:27;42.93;;;25.70;;
2257;SDS011;1136;51.574;7.706;2022-12-18T04:41:54;36.90;;;23.93;;
2257;SDS011;1136;51.574;7.706;2022-12-18T04:44:21;39.37;;;25.33;;
2257;SDS011;1136;51.574;7.706;2022-12-18T04:46:47;45.17;;;25.57;;
2257;SDS011;1136;51.574;7.706;2022-12-18T04:49:14;41.57;;;26.13;;
2257;SDS011;1136;51.574;7.706;2022-12-18T04:51:40;40.57;;;24.00;;
2257;SDS011;1136;51.574;7.706;2022-12-18T04:54:07;50.13;;;25.57;;
2257;SDS011;1136;51.574;7.706;2022-12-18T04:56:34;37.00;;;23.43;;
2257;SDS011;1136;51.574;7.706;2022-12-18T04:59:00;39.00;;;24.60;;
2257;SDS011;1136;51.574;7.706;2022-12-18T05:01:27;38.47;;;25.20;;
2257;SDS011;1136;51.574;7.706;2022-12-18T05:04:00;41.43;;;24.67;;
2257;SDS011;1136;51.574;7.706;2022-12-18T05:06:27;44.20;;;24.10;;
2257;SDS011;1136;51.574;7.706;2022-12-18T05:08:54;39.73;;;22.90;;
2257;SDS011;1136;51.574;7.706;2022-12-18T05:11:20;37.40;;;24.50;;
2257;SDS011;1136;51.574;7.706;2022-12-18T05:13:47;40.00;;;24.47;;
2257;SDS011;1136;51.574;7.706;2022-12-18T05:16:14;32.67;;;21.80;;
2257;SDS011;1136;51.574;7.706;2022-12-18T05:18:41;37.20;;;23.40;;
2257;SDS011;1136;51.574;7.706;2022-12-18T05:21:08;35.63;;;23.53;;
2257;SDS011;1136;51.574;7.706;2022-12-18T05:23:34;37.60;;;22.20;;
2257;SDS011;1136;51.574;7.706;2022-12-18T05:26:02;35.63;;;23.40;;
2257;SDS011;1136;51.574;7.706;2022-12-18T05:28:30;37.10;;;23.73;;
2257;SDS011;1136;51.574;7.706;2022-12-18T05:30:59;34.00;;;22.47;;
2257;SDS011;1136;51.574;7.706;2022-12-18T05:33:28;39.63;;;22.90;;
2257;SDS011;1136;51.574;7.706;2022-12-18T05:35:57;28.70;;;20.33;;
2257;SDS011;1136;51.574;7.706;2022-12-18T05:38:26;36.80;;;23.87;;
2257;SDS011;1136;51.574;7.706;2022-12-18T05:40:53;31.47;;;21.80;;
2257;SDS011;1136;51.574;7.706;2022-12-18T05:43:21;33.27;;;21.67;;
2257;SDS011;1136;51.574;7.706;2022-12-18T05:45:48;34.50;;;20.13;;
2257;SDS011;1136;51.574;7.706;2022-12-18T05:48:15;30.83;;;19.83;;
2257;SDS011;1136;51.574;7.706;2022-12-18T05:50:43;28.07;;;18.87;;
2257;SDS011;1136;51.574;7.706;2022-12-18T05:53:12;35.17;;;20.80;;
2257;SDS011;1136;51.574;7.706;2022-12-18T05:55:39;26.97;;;17.90;;
2257;SDS011;1136;51.574;7.706;2022-12-18T05:58:07;28.23;;;19.27;;
2257;SDS011;1136;51.574;7.706;2022-12-18T06:00:36;29.37;;;20.20;;
2257;SDS011;1136;51.574;7.706;2022-12-18T06:03:07;28.67;;;17.83;;
2257;SDS011;1136;51.574;7.706;2022-12-18T06:05:35;28.30;;;17.83;;
2257;SDS011;1136;51.574;7.706;2022-12-18T06:08:03;32.63;;;18.80;;
2257;SDS011;1136;51.574;7.706;2022-12-18T06:10:30;22.37;;;17.40;;
2257;SDS011;1136;51.574;7.706;2022-12-18T06:12:57;24.00;;;17.00;;
2257;SDS011;1136;51.574;7.706;2022-12-18T06:15:24;26.10;;;16.17;;
2257;SDS011;1136;51.574;7.706;2022-12-18T06:17:50;23.23;;;15.60;;
2257;SDS011;1136;51.574;7.706;2022-12-18T06:20:17;25.20;;;15.70;;
2257;SDS011;1136;51.574;7.706;2022-12-18T06:22:44;25.13;;;16.27;;
2257;SDS011;1136;51.574;7.706;2022-12-18T06:25:10;26.67;;;18.67;;
2257;SDS011;1136;51.574;7.706;2022-12-18T06:27:37;27.90;;;15.57;;
2257;SDS011;1136;51.574;7.706;2022-12-18T06:30:04;26.80;;;15.70;;
2257;SDS011;1136;51.574;7.706;2022-12-18T06:32:31;24.67;;;16.40;;
2257;SDS011;1136;51.574;7.706;2022-12-18T06:34:57;26.70;;;18.73;;
2257;SDS011;1136;51.574;7.706;2022-12-18T06:37:24;22.03;;;16.00;;
2257;SDS011;1136;51.574;7.706;2022-12-18T06:40:29;25.13;;;15.57;;
2257;SDS011;1136;51.574;7.706;2022-12-18T06:42:55;26.80;;;16.53;;
2257;SDS011;1136;51.574;7.706;2022-12-18T06:45:22;23.27;;;14.77;;
2257;SDS011;1136;51.574;7.706;2022-12-18T06:47:49;22.53;;;13.87;;
2257;SDS011;1136;51.574;7.706;2022-12-18T06:50:16;18.27;;;13.80;;
2257;SDS011;1136;51.574;7.706;2022-12-18T06:52:42;24.03;;;14.67;;
2257;SDS011;1136;51.574;7.706;2022-12-18T06:55:10;19.80;;;13.97;;
2257;SDS011;1136;51.574;7.706;2022-12-18T06:57:37;22.20;;;14.40;;
2257;SDS011;1136;51.574;7.706;2022-12-18T07:00:04;25.63;;;14.70;;
2257;SDS011;1136;51.574;7.706;2022-12-18T07:02:32;22.50;;;13.87;;
2257;SDS011;1136;51.574;7.706;2022-12-18T07:05:00;18.30;;;12.23;;
2257;SDS011;1136;51.574;7.706;2022-12-18T07:07:33;16.70;;;11.37;;
2257;SDS011;1136;51.574;7.706;2022-12-18T07:10:00;19.20;;;12.87;;
2257;SDS011;1136;51.574;7.706;2022-12-18T07:12:27;17.43;;;11.83;;
2257;SDS011;1136;51.574;7.706;2022-12-18T07:14:54;16.90;;;11.30;;
2257;SDS011;1136;51.574;7.706;2022-12-18T07:17:20;21.03;;;12.77;;
2257;SDS011;1136;51.574;7.706;2022-12-18T07:19:47;15.03;;;11.40;;
2257;SDS011;1136;51.574;7.706;2022-12-18T07:22:13;17.70;;;12.03;;
2257;SDS011;1136;51.574;7.706;2022-12-18T07:24:40;20.13;;;12.07;;
2257;SDS011;1136;51.574;7.706;2022-12-18T07:27:07;17.17;;;12.00;;
2257;SDS011;1136;51.574;7.706;2022-12-18T07:29:34;17.57;;;11.43;;
2257;SDS011;1136;51.574;7.706;2022-12-18T07:32:01;17.37;;;11.93;;
2257;SDS011;1136;51.574;7.706;2022-12-18T07:34:27;14.07;;;10.87;;
2257;SDS011;1136;51.574;7.706;2022-12-18T07:37:31;17.70;;;11.47;;
2257;SDS011;1136;51.574;7.706;2022-12-18T07:39:58;14.53;;;10.97;;
2257;SDS011;1136;51.574;7.706;2022-12-18T07:42:25;16.43;;;11.57;;
2257;SDS011;1136;51.574;7.706;2022-12-18T07:44:58;18.13;;;11.97;;
2257;SDS011;1136;51.574;7.706;2022-12-18T07:47:25;16.47;;;11.10;;
2257;SDS011;1136;51.574;7.706;2022-12-18T07:49:52;16.50;;;11.23;;
2257;SDS011;1136;51.574;7.706;2022-12-18T07:52:19;16.50;;;11.10;;
2257;SDS011;1136;51.574;7.706;2022-12-18T07:54:51;15.53;;;12.13;;
2257;SDS011;1136;51.574;7.706;2022-12-18T07:57:17;17.17;;;10.47;;
2257;SDS011;1136;51.574;7.706;2022-12-18T08:00:04;15.43;;;10.70;;
2257;SDS011;1136;51.574;7.706;2022-12-18T08:02:31;21.97;;;11.40;;
2257;SDS011;1136;51.574;7.706;2022-12-18T08:04:58;22.70;;;12.70;;
2257;SDS011;1136;51.574;7.706;2022-12-18T08:07:24;19.00;;;12.33;;
2257;SDS011;1136;51.574;7.706;2022-12-18T08:09:51;16.17;;;11.77;;
2257;SDS011;1136;51.574;7.706;2022-12-18T08:12:18;19.97;;;13.43;;
2257;SDS011;1136;51.574;7.706;2022-12-18T08:14:44;18.80;;;13.20;;
2257;SDS011;1136;51.574;7.706;2022-12-18T08:17:11;18.40;;;13.00;;
2257;SDS011;1136;51.574;7.706;2022-12-18T08:19:37;23.77;;;13.30;;
2257;SDS011;1136;51.574;7.706;2022-12-18T08:22:42;24.43;;;15.80;;
2257;SDS011;1136;51.574;7.706;2022-12-18T08:25:08;27.70;;;18.27;;
2257;SDS011;1136;51.574;7.706;2022-12-18T08:27:35;37.77;;;22.90;;
2257;SDS011;1136;51.574;7.706;2022-12-18T08:30:02;33.13;;;22.60;;
2257;SDS011;1136;51.574;7.706;2022-12-18T08:32:32;32.17;;;19.93;;
2257;SDS011;1136;51.574;7.706;2022-12-18T08:34:59;27.20;;;17.83;;
2257;SDS011;1136;51.574;7.706;2022-12-18T08:37:26;32.17;;;17.67;;
2257;SDS011;1136;51.574;7.706;2022-12-18T08:39:52;34.30;;;17.47;;
2257;SDS011;1136;51.574;7.706;2022-12-18T08:42:56;26.17;;;14.63;;
2257;SDS011;1136;51.574;7.706;2022-12-18T08:45:56;20.70;;;12.77;;
2257;SDS011;1136;51.574;7.706;2022-12-18T08:48:23;16.97;;;12.57;;
2257;SDS011;1136;51.574;7.706;2022-12-18T08:50:59;17.20;;;10.57;;
2257;SDS011;1136;51.574;7.706;2022-12-18T08:53:26;17.50;;;11.00;;
2257;SDS011;1136;51.574;7.706;2022-12-18T08:56:00;14.77;;;10.90;;
2257;SDS011;1136;51.574;7.706;2022-12-18T08:58:27;18.20;;;11.57;;
2257;SDS011;1136;51.574;7.706;2022-12-18T09:00:53;17.90;;;10.40;;
2257;SDS011;1136;51.574;7.706;2022-12-18T09:03:20;14.00;;;11.17;;
2257;SDS011;1136;51.574;7.706;2022-12-18T09:05:48;11.90;;;10.20;;
2257;SDS011;1136;51.574;7.706;2022-12-18T09:08:15;13.93;;;9.70;;
2257;SDS011;1136;51.574;7.706;2022-12-18T09:10:45;11.80;;;9.33;;
2257;SDS011;1136;51.574;7.706;2022-12-18T09:13:13;12.73;;;9.10;;
2257;SDS011;1136;51.574;7.706;2022-12-18T09:15:46;12.80;;;9.63;;
2257;SDS011;1136;51.574;7.706;2022-12-18T09:18:15;13.07;;;9.50;;
2257;SDS011;1136;51.574;7.706;2022-12-18T09:21:20;11.17;;;8.60;;
2257;SDS011;1136;51.574;7.706;2022-12-18T09:23:51;11.93;;;8.77;;
2257;SDS011;1136;51.574;7.706;2022-12-18T09:26:17;10.93;;;8.30;;
2257;SDS011;1136;51.574;7.706;2022-12-18T09:28:44;8.90;;;7.60;;
2257;SDS011;1136;51.574;7.706;2022-12-18T09:31:14;9.17;;;7.63;;
2257;SDS011;1136;51.574;7.706;2022-12-18T09:33:40;9.60;;;7.80;;
2257;SDS011;1136;51.574;7.706;2022-12-18T09:36:08;8.17;;;7.37;;
2257;SDS011;1136;51.574;7.706;2022-12-18T09:38:36;8.97;;;7.40;;
2257;SDS011;1136;51.574;7.706;2022-12-18T09:41:15;9.07;;;7.40;;
2257;SDS011;1136;51.574;7.706;2022-12-18T09:43:56;10.00;;;7.07;;
2257;SDS011;1136;51.574;7.706;2022-12-18T09:46:29;8.47;;;7.30;;
2257;SDS011;1136;51.574;7.706;2022-12-18T09:49:35;8.37;;;7.40;;
2257;SDS011;1136;51.574;7.706;2022-12-18T09:54:58;7.80;;;6.70;;
2257;SDS011;1136;51.574;7.706;2022-12-18T09:58:28;9.27;;;8.03;;
2257;SDS011;1136;51.574;7.706;2022-12-18T10:01:06;10.23;;;7.93;;
2257;SDS011;1136;51.574;7.706;2022-12-18T10:03:37;8.23;;;7.17;;
2257;SDS011;1136;51.574;7.706;2022-12-18T10:06:22;9.33;;;7.53;;
2257;SDS011;1136;51.574;7.706;2022-12-18T10:12:13;8.03;;;7.10;;
2257;SDS011;1136;51.574;7.706;2022-12-18T10:14:46;10.13;;;9.03;;
2257;SDS011;1136;51.574;7.706;2022-12-18T10:17:46;8.70;;;7.33;;
2257;SDS011;1136;51.574;7.706;2022-12-18T10:25:59;8.27;;;7.40;;
2257;SDS011;1136;51.574;7.706;2022-12-18T10:28:27;8.13;;;7.10;;
2257;SDS011;1136;51.574;7.706;2022-12-18T10:30:56;7.30;;;6.60;;
2257;SDS011;1136;51.574;7.706;2022-12-18T10:33:23;7.30;;;6.57;;
2257;SDS011;1136;51.574;7.706;2022-12-18T10:35:51;8.53;;;7.50;;
2257;SDS011;1136;51.574;7.706;2022-12-18T10:43:23;12.10;;;9.30;;
2257;SDS011;1136;51.574;7.706;2022-12-18T10:45:58;12.67;;;9.57;;
2257;SDS011;1136;51.574;7.706;2022-12-18T10:48:26;13.90;;;12.27;;
2257;SDS011;1136;51.574;7.706;2022-12-18T10:50:53;15.83;;;11.00;;
2257;SDS011;1136;51.574;7.706;2022-12-18T10:53:38;12.43;;;10.17;;
2257;SDS011;1136;51.574;7.706;2022-12-18T10:56:06;11.90;;;10.33;;
2257;SDS011;1136;51.574;7.706;2022-12-18T10:58:37;12.00;;;10.70;;
2257;SDS011;1136;51.574;7.706;2022-12-18T11:01:09;12.77;;;9.77;;
2257;SDS011;1136;51.574;7.706;2022-12-18T11:03:47;12.57;;;10.37;;
2257;SDS011;1136;51.574;7.706;2022-12-18T11:06:28;12.83;;;10.40;;
2257;SDS011;1136;51.574;7.706;2022-12-18T11:11:49;16.93;;;13.60;;
2257;SDS011;1136;51.574;7.706;2022-12-18T11:14:22;13.43;;;12.10;;
2257;SDS011;1136;51.574;7.706;2022-12-18T11:16:50;12.63;;;9.73;;
2257;SDS011;1136;51.574;7.706;2022-12-18T11:19:38;11.43;;;9.70;;
2257;SDS011;1136;51.574;7.706;2022-12-18T11:25:02;14.63;;;12.07;;
2257;SDS011;1136;51.574;7.706;2022-12-18T11:27:55;19.67;;;17.43;;
2257;SDS011;1136;51.574;7.706;2022-12-18T11:33:20;12.60;;;9.53;;
2257;SDS011;1136;51.574;7.706;2022-12-18T11:35:58;20.10;;;17.40;;
2257;SDS011;1136;51.574;7.706;2022-12-18T11:38:30;19.73;;;17.40;;
2257;SDS011;1136;51.574;7.706;2022-12-18T11:41:02;10.80;;;9.70;;
2257;SDS011;1136;51.574;7.706;2022-12-18T11:43:35;15.43;;;12.37;;
2257;SDS011;1136;51.574;7.706;2022-12-18T11:46:15;15.43;;;11.27;;
2257;SDS011;1136;51.574;7.706;2022-12-18T11:51:38;14.07;;;11.17;;
2257;SDS011;1136;51.574;7.706;2022-12-18T11:54:19;16.40;;;11.87;;
2257;SDS011;1136;51.574;7.706;2022-12-18T11:57:03;19.07;;;12.73;;
2257;SDS011;1136;51.574;7.706;2022-12-18T12:16:17;22.10;;;18.23;;
2257;SDS011;1136;51.574;7.706;2022-12-18T12:21:42;17.20;;;15.40;;
2257;SDS011;1136;51.574;7.706;2022-12-18T12:24:13;18.70;;;14.27;;
2257;SDS011;1136;51.574;7.706;2022-12-18T12:27:47;20.53;;;16.37;;
2257;SDS011;1136;51.574;7.706;2022-12-18T12:30:25;20.50;;;14.83;;
2257;SDS011;1136;51.574;7.706;2022-12-18T12:35:44;17.40;;;13.80;;
2257;SDS011;1136;51.574;7.706;2022-12-18T12:38:18;17.20;;;13.67;;
2257;SDS011;1136;51.574;7.706;2022-12-18T12:40:49;15.50;;;11.50;;
2257;SDS011;1136;51.574;7.706;2022-12-18T12:43:41;18.73;;;12.90;;
2257;SDS011;1136;51.574;7.706;2022-12-18T12:46:16;15.47;;;12.33;;
2257;SDS011;1136;51.574;7.706;2022-12-18T12:48:48;19.67;;;12.77;;
2257;SDS011;1136;51.574;7.706;2022-12-18T12:51:21;17.80;;;13.20;;
2257;SDS011;1136;51.574;7.706;2022-12-18T12:54:01;17.10;;;12.10;;
2257;SDS011;1136;51.574;7.706;2022-12-18T12:56:38;17.10;;;11.73;;
2257;SDS011;1136;51.574;7.706;2022-12-18T13:04:49;17.73;;;12.87;;
2257;SDS011;1136;51.574;7.706;2022-12-18T13:13:29;17.50;;;12.70;;
2257;SDS011;1136;51.574;7.706;2022-12-18T13:16:18;12.20;;;10.13;;
2257;SDS011;1136;51.574;7.706;2022-12-18T13:18:50;17.50;;;11.00;;
2257;SDS011;1136;51.574;7.706;2022-12-18T13:21:55;14.80;;;9.70;;
2257;SDS011;1136;51.574;7.706;2022-12-18T13:24:24;12.30;;;10.27;;
2257;SDS011;1136;51.574;7.706;2022-12-18T13:26:55;14.50;;;9.67;;
2257;SDS011;1136;51.574;7.706;2022-12-18T13:29:42;11.30;;;9.67;;
2257;SDS011;1136;51.574;7.706;2022-12-18T13:32:23;14.90;;;9.80;;
2257;SDS011;1136;51.574;7.706;2022-12-18T13:37:52;10.70;;;9.57;;
2257;SDS011;1136;51.574;7.706;2022-12-18T13:44:10;14.27;;;9.87;;
2257;SDS011;1136;51.574;7.706;2022-12-18T13:48:51;15.13;;;11.50;;
2257;SDS011;1136;51.574;7.706;2022-12-18T13:51:20;12.50;;;10.17;;
2257;SDS011;1136;51.574;7.706;2022-12-18T13:53:58;18.17;;;10.40;;
2257;SDS011;1136;51.574;7.706;2022-12-18T13:56:28;17.50;;;11.07;;
2257;SDS011;1136;51.574;7.706;2022-12-18T13:59:05;17.77;;;11.90;;
2257;SDS011;1136;51.574;7.706;2022-12-18T14:01:35;13.60;;;10.90;;
2257;SDS011;1136;51.574;7.706;2022-12-18T14:04:22;23.00;;;12.17;;
2257;SDS011;1136;51.574;7.706;2022-12-18T14:07:06;13.47;;;12.07;;
2257;SDS011;1136;51.574;7.706;2022-12-18T14:09:57;15.23;;;11.20;;
2257;SDS011;1136;51.574;7.706;2022-12-18T14:12:49;13.17;;;11.13;;
2257;SDS011;1136;51.574;7.706;2022-12-18T14:18:02;15.87;;;12.67;;
2257;SDS011;1136;51.574;7.706;2022-12-18T14:20:35;16.33;;;13.00;;
2257;SDS011;1136;51.574;7.706;2022-12-18T14:23:23;15.53;;;12.80;;
2257;SDS011;1136;51.574;7.706;2022-12-18T14:25:57;21.77;;;16.47;;
2257;SDS011;1136;51.574;7.706;2022-12-18T14:28:31;29.00;;;22.73;;
2257;SDS011;1136;51.574;7.706;2022-12-18T14:30:57;24.13;;;20.77;;
2257;SDS011;1136;51.574;7.706;2022-12-18T14:33:25;17.40;;;13.70;;
2257;SDS011;1136;51.574;7.706;2022-12-18T14:41:01;18.50;;;14.53;;
2257;SDS011;1136;51.574;7.706;2022-12-18T14:43:33;15.80;;;14.10;;
2257;SDS011;1136;51.574;7.706;2022-12-18T14:46:01;15.57;;;13.97;;
2257;SDS011;1136;51.574;7.706;2022-12-18T14:53:46;22.70;;;18.67;;
2257;SDS011;1136;51.574;7.706;2022-12-18T14:56:26;13.63;;;12.20;;
2257;SDS011;1136;51.574;7.706;2022-12-18T15:01:25;15.43;;;11.97;;
2257;SDS011;1136;51.574;7.706;2022-12-18T15:07:08;20.20;;;13.27;;
2257;SDS011;1136;51.574;7.706;2022-12-18T15:09:38;17.67;;;15.10;;
2257;SDS011;1136;51.574;7.706;2022-12-18T15:12:17;17.77;;;12.10;;
2257;SDS011;1136;51.574;7.706;2022-12-18T15:14:49;14.57;;;11.70;;
2257;SDS011;1136;51.574;7.706;2022-12-18T15:17:20;21.40;;;14.30;;
2257;SDS011;1136;51.574;7.706;2022-12-18T15:19:51;19.67;;;14.40;;
2257;SDS011;1136;51.574;7.706;2022-12-18T15:22:20;15.07;;;12.87;;
2257;SDS011;1136;51.574;7.706;2022-12-18T15:24:57;17.77;;;12.70;;
2257;SDS011;1136;51.574;7.706;2022-12-18T15:28:02;16.27;;;13.00;;
2257;SDS011;1136;51.574;7.706;2022-12-18T15:30:29;17.03;;;13.00;;
2257;SDS011;1136;51.574;7.706;2022-12-18T15:33:17;16.53;;;11.53;;
2257;SDS011;1136;51.574;7.706;2022-12-18T15:36:01;10.87;;;8.60;;
2257;SDS011;1136;51.574;7.706;2022-12-18T15:38:30;16.47;;;11.40;;
2257;SDS011;1136;51.574;7.706;2022-12-18T15:40:57;16.07;;;10.80;;
2257;SDS011;1136;51.574;7.706;2022-12-18T15:43:24;14.50;;;10.20;;
2257;SDS011;1136;51.574;7.706;2022-12-18T15:46:00;18.20;;;12.20;;
2257;SDS011;1136;51.574;7.706;2022-12-18T15:48:28;127.57;;;66.73;;
2257;SDS011;1136;51.574;7.706;2022-12-18T15:50:55;16.37;;;11.63;;
2257;SDS011;1136;51.574;7.706;2022-12-18T15:53:23;13.77;;;9.77;;
2257;SDS011;1136;51.574;7.706;2022-12-18T15:55:51;12.17;;;10.83;;
2257;SDS011;1136;51.574;7.706;2022-12-18T15:58:37;13.00;;;8.43;;
2257;SDS011;1136;51.574;7.706;2022-12-18T16:01:04;17.23;;;10.53;;
2257;SDS011;1136;51.574;7.706;2022-12-18T16:03:30;15.37;;;10.10;;
2257;SDS011;1136;51.574;7.706;2022-12-18T16:05:57;12.57;;;10.20;;
2257;SDS011;1136;51.574;7.706;2022-12-18T16:08:30;13.50;;;9.50;;
2257;SDS011;1136;51.574;7.706;2022-12-18T16:10:57;14.77;;;9.70;;
2257;SDS011;1136;51.574;7.706;2022-12-18T16:13:24;11.63;;;9.90;;
2257;SDS011;1136;51.574;7.706;2022-12-18T16:15:50;12.17;;;10.93;;
2257;SDS011;1136;51.574;7.706;2022-12-18T16:18:17;12.53;;;10.33;;
2257;SDS011;1136;51.574;7.706;2022-12-18T16:20:43;15.00;;;11.00;;
2257;SDS011;1136;51.574;7.706;2022-12-18T16:23:10;14.13;;;11.27;;
2257;SDS011;1136;51.574;7.706;2022-12-18T16:25:37;15.90;;;10.17;;
2257;SDS011;1136;51.574;7.706;2022-12-18T16:28:03;16.47;;;12.43;;
2257;SDS011;1136;51.574;7.706;2022-12-18T16:30:30;12.57;;;8.70;;
2257;SDS011;1136;51.574;7.706;2022-12-18T16:33:04;21.20;;;10.90;;
2257;SDS011;1136;51.574;7.706;2022-12-18T16:35:32;17.17;;;11.67;;
2257;SDS011;1136;51.574;7.706;2022-12-18T16:37:59;17.90;;;12.20;;
2257;SDS011;1136;51.574;7.706;2022-12-18T16:40:26;26.87;;;16.93;;
2257;SDS011;1136;51.574;7.706;2022-12-18T16:42:52;21.90;;;12.13;;
2257;SDS011;1136;51.574;7.706;2022-12-18T16:45:19;15.87;;;11.47;;
2257;SDS011;1136;51.574;7.706;2022-12-18T16:47:46;14.47;;;10.37;;
2257;SDS011;1136;51.574;7.706;2022-12-18T16:50:13;19.93;;;13.60;;
2257;SDS011;1136;51.574;7.706;2022-12-18T16:52:40;14.90;;;10.10;;
2257;SDS011;1136;51.574;7.706;2022-12-18T16:55:07;13.30;;;9.40;;
2257;SDS011;1136;51.574;7.706;2022-12-18T16:57:34;13.97;;;9.97;;
2257;SDS011;1136;51.574;7.706;2022-12-18T17:00:00;12.87;;;10.10;;
2257;SDS011;1136;51.574;7.706;2022-12-18T17:02:31;11.53;;;9.17;;
2257;SDS011;1136;51.574;7.706;2022-12-18T17:05:36;14.13;;;9.40;;
2257;SDS011;1136;51.574;7.706;2022-12-18T17:08:02;14.57;;;10.70;;
2257;SDS011;1136;51.574;7.706;2022-12-18T17:10:29;13.00;;;9.87;;